createdAt,value
2022-08-09T00:00:11.285Z,1.00
2022-08-09T00:02:42.778Z,0.90
2022-08-09T00:06:15.571Z,1.00
2022-08-09T00:08:02.591Z,1.30
2022-08-09T00:10:29.442Z,0.95
2022-08-09T00:12:57.168Z,0.98
2022-08-09T00:15:26.789Z,1.25
2022-08-09T00:18:12.509Z,1.00
2022-08-09T00:20:48.205Z,0.95
2022-08-09T00:23:56.986Z,1.00
2022-08-09T00:26:06.814Z,0.90
2022-08-09T00:28:34.499Z,1.00
2022-08-09T00:31:30.682Z,1.00
2022-08-09T00:33:51.939Z,1.00
2022-08-09T00:36:20.191Z,1.10
2022-08-09T00:38:50.799Z,0.85
2022-08-09T00:44:11.784Z,1.02
2022-08-09T00:44:13.716Z,0.90
2022-08-09T00:46:55.855Z,0.90
2022-08-09T00:49:25.037Z,0.80
2022-08-09T00:51:57.122Z,1.00
2022-08-09T00:54:35.154Z,1.00
2022-08-09T00:57:10.160Z,0.93
2022-08-09T00:59:46.935Z,0.95
2022-08-09T01:02:22.123Z,0.80
2022-08-09T01:05:02.728Z,1.25
2022-08-09T01:08:01.121Z,0.80
2022-08-09T01:10:51.919Z,1.08
2022-08-09T01:14:00.112Z,0.90
2022-08-09T01:16:35.144Z,1.10
2022-08-09T01:19:39.918Z,1.08
2022-08-09T01:22:48.199Z,1.00
2022-08-09T01:25:37.397Z,1.00
2022-08-09T01:28:10.645Z,1.10
2022-08-09T01:30:52.497Z,1.10
2022-08-09T01:33:31.184Z,1.00
2022-08-09T01:36:07.029Z,1.00
2022-08-09T01:38:40.572Z,0.90
2022-08-09T01:41:25.671Z,0.85
2022-08-09T01:43:55.758Z,0.90
2022-08-09T01:46:30.188Z,1.00
2022-08-09T01:49:10.449Z,0.90
2022-08-09T01:51:53.961Z,1.00
2022-08-09T01:54:25.817Z,0.90
2022-08-09T01:56:54.095Z,0.90
2022-08-09T01:59:24.308Z,0.90
2022-08-09T02:01:58.062Z,1.00
2022-08-09T02:04:28.388Z,1.00
2022-08-09T02:07:15.307Z,1.05
2022-08-09T02:10:01.357Z,0.90
2022-08-09T02:12:32.795Z,0.90
2022-08-09T02:15:01.171Z,0.95
2022-08-09T02:18:00.176Z,0.90
2022-08-09T02:20:26.325Z,1.00
2022-08-09T02:22:53.517Z,0.90
2022-08-09T02:25:30.702Z,1.00
2022-08-09T02:28:03.873Z,0.90
2022-08-09T02:30:37.407Z,1.10
2022-08-09T02:33:07.798Z,1.08
2022-08-09T02:36:02.765Z,0.90
2022-08-09T02:38:35.452Z,0.88
2022-08-09T02:41:15.415Z,0.80
2022-08-09T02:43:55.038Z,0.82
2022-08-09T02:46:27.575Z,2.03
2022-08-09T02:48:59.381Z,0.90
2022-08-09T02:51:27.906Z,0.80
2022-08-09T02:54:05.103Z,0.90
2022-08-09T02:56:34.782Z,0.90
2022-08-09T02:59:07.921Z,1.20
2022-08-09T03:01:43.341Z,0.90
2022-08-09T03:04:26.405Z,0.82
2022-08-09T03:06:59.825Z,0.90
2022-08-09T03:09:42.797Z,0.90
2022-08-09T03:12:13.264Z,0.85
2022-08-09T03:14:42.296Z,1.00
2022-08-09T03:17:16.531Z,1.02
2022-08-09T03:19:52.754Z,0.95
2022-08-09T03:22:33.195Z,1.00
2022-08-09T03:25:26.544Z,0.98
2022-08-09T03:27:59.149Z,0.93
2022-08-09T03:30:30.269Z,0.80
2022-08-09T03:33:12.637Z,0.90
2022-08-09T03:36:13.665Z,1.00
2022-08-09T03:38:30.253Z,0.80
2022-08-09T03:40:57.922Z,1.00
2022-08-09T03:43:25.048Z,1.08
2022-08-09T03:46:04.402Z,0.93
2022-08-09T03:48:51.727Z,0.90
2022-08-09T03:51:57.431Z,0.90
2022-08-09T03:54:11.081Z,1.00
2022-08-09T03:56:42.158Z,1.08
2022-08-09T03:59:17.369Z,0.80
2022-08-09T04:01:50.570Z,1.00
2022-08-09T04:04:18.140Z,0.80
2022-08-09T04:06:48.741Z,0.98
2022-08-09T04:09:48.250Z,0.95
2022-08-09T04:12:30.883Z,0.90
2022-08-09T04:15:02.130Z,1.00
2022-08-09T04:17:42.264Z,0.90
2022-08-09T04:20:12.180Z,0.80
2022-08-09T04:22:41.387Z,0.80
2022-08-09T04:25:12.902Z,1.17
2022-08-09T04:27:42.856Z,0.85
2022-08-09T04:30:20.907Z,0.80
2022-08-09T04:32:50.909Z,0.90
2022-08-09T04:35:21.826Z,0.90
2022-08-09T04:37:49.932Z,0.80
2022-08-09T04:40:19.305Z,0.90
2022-08-09T04:42:56.891Z,0.90
2022-08-09T04:45:23.786Z,0.95
2022-08-09T04:48:01.032Z,1.05
2022-08-09T04:50:33.604Z,1.00
2022-08-09T04:53:02.624Z,0.98
2022-08-09T04:55:32.442Z,0.70
2022-08-09T04:58:09.207Z,0.85
2022-08-09T05:00:37.233Z,0.93
2022-08-09T05:03:30.214Z,0.98
2022-08-09T05:06:07.065Z,0.80
2022-08-09T05:08:35.066Z,0.95
2022-08-09T05:11:02.799Z,1.00
2022-08-09T05:13:32.854Z,0.90
2022-08-09T05:16:00.214Z,1.00
2022-08-09T05:18:38.008Z,1.05
2022-08-09T05:21:23.007Z,0.80
2022-08-09T05:23:59.861Z,0.98
2022-08-09T05:26:45.451Z,0.90
2022-08-09T05:29:22.233Z,0.80
2022-08-09T05:31:56.788Z,0.98
2022-08-09T05:34:32.726Z,0.93
2022-08-09T05:37:04.976Z,1.10
2022-08-09T05:39:36.058Z,1.15
2022-08-09T05:42:17.888Z,1.05
2022-08-09T05:44:50.669Z,1.00
2022-08-09T05:47:18.807Z,0.90
2022-08-09T05:50:30.058Z,0.80
2022-08-09T05:52:32.612Z,1.08
2022-08-09T05:55:03.006Z,1.00
2022-08-09T05:57:50.486Z,1.40
2022-08-09T06:00:28.672Z,1.55
2022-08-09T06:03:00.875Z,1.65
2022-08-09T06:05:31.232Z,1.70
2022-08-09T06:08:19.422Z,2.00
2022-08-09T06:10:52.843Z,1.63
2022-08-09T06:13:21.253Z,1.48
2022-08-09T06:15:50.992Z,1.73
2022-08-09T06:18:24.902Z,1.70
2022-08-09T06:20:54.809Z,1.80
2022-08-09T06:23:58.750Z,1.77
2022-08-09T06:26:13.475Z,1.60
2022-08-09T06:28:43.503Z,1.70
2022-08-09T06:31:10.845Z,1.63
2022-08-09T06:33:41.611Z,1.70
2022-08-09T06:36:11.916Z,1.45
2022-08-09T06:38:47.911Z,1.77
2022-08-09T06:41:18.863Z,1.70
2022-08-09T06:43:46.968Z,2.05
2022-08-09T06:46:39.909Z,1.60
2022-08-09T06:49:01.004Z,1.50
2022-08-09T06:51:28.185Z,1.70
2022-08-09T06:53:55.413Z,1.60
2022-08-09T06:56:30.614Z,1.60
2022-08-09T07:00:54.789Z,1.58
2022-08-09T07:01:53.548Z,1.60
2022-08-09T07:04:25.055Z,1.90
2022-08-09T07:07:00.693Z,1.67
2022-08-09T07:09:55.277Z,1.60
2022-08-09T07:12:17.872Z,1.60
2022-08-09T07:14:50.839Z,2.08
2022-08-09T07:17:21.973Z,1.88
2022-08-09T07:19:50.874Z,1.60
2022-08-09T07:22:34.829Z,1.75
2022-08-09T07:25:09.622Z,2.00
2022-08-09T07:27:42.705Z,1.30
2022-08-09T07:30:20.125Z,1.52
2022-08-09T07:32:48.740Z,1.50
2022-08-09T07:35:18.365Z,1.52
2022-08-09T07:37:47.946Z,1.50
2022-08-09T07:40:20.207Z,1.67
2022-08-09T07:42:54.409Z,1.48
2022-08-09T07:45:39.355Z,1.90
2022-08-09T07:48:25.869Z,1.92
2022-08-09T07:51:09.490Z,1.92
2022-08-09T07:54:05.816Z,2.10
2022-08-09T07:56:30.959Z,1.80
2022-08-09T07:58:59.245Z,1.85
2022-08-09T08:01:32.898Z,1.75
2022-08-09T08:04:01.323Z,1.90
2022-08-09T08:06:32.223Z,1.88
2022-08-09T08:09:04.394Z,2.13
2022-08-09T08:12:10.283Z,1.92
2022-08-09T08:14:18.420Z,1.98
2022-08-09T08:17:01.053Z,1.80
2022-08-09T08:19:35.117Z,1.80
2022-08-09T08:22:02.323Z,1.90
2022-08-09T08:24:35.174Z,2.10
2022-08-09T08:27:17.120Z,1.83
2022-08-09T08:29:49.942Z,2.58
2022-08-09T08:32:24.568Z,1.60
2022-08-09T08:35:05.549Z,1.70
2022-08-09T08:37:41.498Z,1.85
2022-08-09T08:40:19.218Z,1.60
2022-08-09T08:42:47.281Z,1.40
2022-08-09T08:45:15.818Z,1.50
2022-08-09T08:47:45.200Z,1.52
2022-08-09T08:50:18.149Z,1.95
2022-08-09T08:52:59.564Z,1.40
2022-08-09T08:55:28.122Z,1.60
2022-08-09T08:57:56.785Z,1.33
2022-08-09T09:00:29.812Z,1.50
2022-08-09T09:03:11.768Z,1.55
2022-08-09T09:06:00.169Z,1.17
2022-08-09T09:08:32.053Z,1.52
2022-08-09T09:11:05.854Z,1.45
2022-08-09T09:13:54.912Z,1.23
2022-08-09T09:16:30.837Z,1.30
2022-08-09T09:19:36.870Z,1.10
2022-08-09T09:22:07.652Z,1.35
2022-08-09T09:24:38.790Z,1.05
2022-08-09T09:27:09.483Z,1.20
2022-08-09T09:30:27.504Z,1.40
2022-08-09T09:32:42.961Z,1.30
2022-08-09T09:35:12.969Z,1.38
2022-08-09T09:37:46.002Z,1.30
2022-08-09T09:40:13.159Z,1.10
2022-08-09T09:42:42.983Z,1.30
2022-08-09T09:45:14.428Z,1.38
2022-08-09T09:47:58.326Z,1.30
2022-08-09T09:50:50.785Z,1.13
2022-08-09T09:53:25.206Z,1.20
2022-08-09T09:56:20.172Z,1.13
2022-08-09T09:58:57.781Z,1.17
2022-08-09T10:01:31.373Z,1.48
2022-08-09T10:04:16.032Z,1.45
2022-08-09T10:06:51.806Z,1.48
2022-08-09T10:09:22.195Z,1.45
2022-08-09T10:12:14.474Z,1.00
2022-08-09T10:14:48.758Z,1.50
2022-08-09T10:17:50.400Z,1.70
2022-08-09T10:20:27.350Z,2.10
2022-08-09T10:23:13.494Z,1.70
2022-08-09T10:26:04.394Z,1.58
2022-08-09T10:28:32.599Z,1.40
2022-08-09T10:34:09.609Z,1.50
2022-08-09T10:36:35.554Z,1.50
2022-08-09T10:39:02.875Z,1.42
2022-08-09T10:41:32.939Z,1.63
2022-08-09T10:44:03.890Z,1.48
2022-08-09T10:47:00.536Z,1.48
2022-08-09T10:49:51.479Z,1.50
2022-08-09T10:52:26.469Z,1.30
2022-08-09T10:54:53.756Z,1.17
2022-08-09T10:57:23.194Z,1.60
2022-08-09T10:59:58.194Z,1.65
2022-08-09T11:03:11.547Z,1.45
2022-08-09T11:05:30.178Z,1.55
2022-08-09T11:08:17.769Z,1.40
2022-08-09T11:11:00.628Z,1.38
2022-08-09T11:13:50.085Z,1.52
2022-08-09T11:16:35.756Z,1.40
2022-08-09T11:19:09.716Z,1.30
2022-08-09T11:21:56.940Z,1.50
2022-08-09T11:24:57.682Z,1.40
2022-08-09T11:28:04.930Z,1.65
2022-08-09T11:30:38.073Z,1.42
2022-08-09T11:33:05.837Z,1.17
2022-08-09T11:35:50.366Z,1.05
2022-08-09T11:38:32.237Z,1.10
2022-08-09T11:41:13.535Z,1.27
2022-08-09T11:43:46.642Z,1.27
2022-08-09T11:46:26.669Z,1.20
2022-08-09T11:49:05.386Z,1.33
2022-08-09T11:52:53.889Z,1.55
2022-08-09T11:55:35.063Z,1.35
2022-08-09T11:58:16.331Z,1.38
2022-08-09T12:00:54.667Z,1.30
2022-08-09T12:03:55.046Z,1.48
2022-08-09T12:06:26.660Z,1.30
2022-08-09T12:09:01.220Z,1.30
2022-08-09T12:11:28.716Z,1.10
2022-08-09T12:14:28.855Z,1.70
2022-08-09T12:16:58.309Z,1.33
2022-08-09T12:19:32.102Z,1.40
2022-08-09T12:22:04.296Z,1.50
2022-08-09T12:24:31.684Z,1.42
2022-08-09T12:29:00.101Z,1.40
2022-08-09T12:30:01.441Z,1.40
2022-08-09T12:32:44.127Z,2.15
2022-08-09T12:35:13.253Z,1.30
2022-08-09T12:37:51.400Z,1.30
2022-08-09T12:40:21.195Z,1.50
2022-08-09T12:42:50.951Z,1.27
2022-08-09T12:45:33.821Z,1.10
2022-08-09T12:48:07.883Z,1.20
2022-08-09T12:50:38.387Z,1.40
2022-08-09T12:53:09.130Z,1.13
2022-08-09T12:56:15.740Z,1.40
2022-08-09T12:58:32.484Z,1.30
2022-08-09T13:01:04.413Z,1.10
2022-08-09T13:03:53.432Z,1.00
2022-08-09T13:06:34.703Z,1.25
2022-08-09T13:09:14.336Z,1.40
2022-08-09T13:11:46.867Z,1.30
2022-08-09T13:14:41.146Z,1.25
2022-08-09T13:17:16.141Z,1.08
2022-08-09T13:20:06.801Z,1.30
2022-08-09T13:23:02.015Z,1.27
2022-08-09T13:25:19.835Z,1.13
2022-08-09T13:27:54.914Z,1.20
2022-08-09T13:30:50.371Z,1.23
2022-08-09T13:33:24.660Z,1.40
2022-08-09T13:36:24.271Z,1.10
2022-08-09T13:39:00.894Z,1.00
2022-08-09T13:41:58.937Z,1.08
2022-08-09T13:44:17.906Z,1.00
2022-08-09T13:47:27.325Z,1.10
2022-08-09T13:49:56.409Z,1.10
2022-08-09T13:52:27.997Z,1.00
2022-08-09T13:55:00.083Z,1.15
2022-08-09T13:57:41.082Z,1.00
2022-08-09T14:00:08.768Z,1.00
2022-08-09T14:02:42.069Z,1.15
2022-08-09T14:05:13.503Z,1.23
2022-08-09T14:08:01.458Z,0.90
2022-08-09T14:10:45.883Z,0.82
2022-08-09T14:13:27.947Z,1.10
2022-08-09T14:16:09.350Z,0.80
2022-08-09T14:18:38.916Z,0.90
2022-08-09T14:21:11.151Z,1.08
2022-08-09T14:23:40.132Z,1.10
2022-08-09T14:26:13.841Z,1.13
2022-08-09T14:28:41.846Z,1.00
2022-08-09T14:31:11.518Z,0.90
2022-08-09T14:33:38.531Z,0.98
2022-08-09T14:36:19.586Z,0.80
2022-08-09T14:38:47.123Z,0.90
2022-08-09T14:41:24.052Z,0.90
2022-08-09T14:44:02.786Z,1.00
2022-08-09T14:46:57.172Z,1.70
2022-08-09T14:49:18.427Z,1.00
2022-08-09T14:51:50.392Z,1.00
2022-08-09T14:54:17.280Z,0.90
2022-08-09T14:56:53.752Z,1.13
2022-08-09T14:59:25.066Z,1.08
2022-08-09T15:01:53.862Z,1.05
2022-08-09T15:04:20.635Z,1.10
2022-08-09T15:06:51.409Z,1.02
2022-08-09T15:10:04.049Z,1.10
2022-08-09T15:12:07.750Z,1.45
2022-08-09T15:14:38.687Z,1.15
2022-08-09T15:17:09.497Z,1.52
2022-08-09T15:19:37.091Z,1.38
2022-08-09T15:22:26.134Z,1.20
2022-08-09T15:24:53.828Z,1.20
2022-08-09T15:27:21.232Z,1.40
2022-08-09T15:30:57.250Z,1.20
2022-08-09T15:32:35.881Z,1.40
2022-08-09T15:35:40.328Z,0.95
2022-08-09T15:37:56.294Z,1.20
2022-08-09T15:40:43.679Z,1.30
2022-08-09T15:43:13.560Z,1.00
2022-08-09T15:45:51.833Z,1.50
2022-08-09T15:48:31.940Z,1.30
2022-08-09T15:51:00.527Z,1.15
2022-08-09T15:54:03.389Z,1.20
2022-08-09T15:56:23.357Z,1.10
2022-08-09T15:58:58.147Z,1.10
2022-08-09T16:01:25.121Z,1.27
2022-08-09T16:03:52.438Z,1.27
2022-08-09T16:06:34.685Z,1.27
2022-08-09T16:09:04.798Z,1.42
2022-08-09T16:11:32.926Z,1.33
2022-08-09T16:14:03.760Z,1.25
2022-08-09T16:16:34.642Z,1.30
2022-08-09T16:19:05.718Z,1.00
2022-08-09T16:21:34.951Z,1.30
2022-08-09T16:24:03.071Z,1.40
2022-08-09T16:26:35.560Z,1.35
2022-08-09T16:29:14.167Z,1.17
2022-08-09T16:32:12.642Z,1.25
2022-08-09T16:34:55.064Z,1.23
2022-08-09T16:37:17.672Z,1.30
2022-08-09T16:39:54.748Z,1.20
2022-08-09T16:42:31.528Z,1.25
2022-08-09T16:44:58.302Z,1.52
2022-08-09T16:48:40.193Z,1.20
2022-08-09T16:50:32.309Z,1.15
2022-08-09T16:52:58.860Z,1.23
2022-08-09T16:55:25.717Z,1.02
2022-08-09T16:58:09.935Z,1.02
2022-08-09T17:00:38.787Z,1.02
2022-08-09T17:03:21.922Z,1.08
2022-08-09T17:06:08.008Z,1.30
2022-08-09T17:08:45.319Z,1.20
2022-08-09T17:11:24.582Z,1.52
2022-08-09T17:14:01.915Z,1.13
2022-08-09T17:16:29.104Z,1.23
2022-08-09T17:18:56.593Z,1.40
2022-08-09T17:21:25.125Z,1.00
2022-08-09T17:24:21.363Z,1.30
2022-08-09T17:26:42.476Z,1.00
2022-08-09T17:29:20.793Z,1.25
2022-08-09T17:31:49.342Z,1.17
2022-08-09T17:34:20.291Z,1.20
2022-08-09T17:37:03.759Z,1.20
2022-08-09T17:39:52.233Z,0.90
2022-08-09T17:42:41.962Z,1.20
2022-08-09T17:45:06.577Z,1.00
2022-08-09T17:47:49.881Z,1.00
2022-08-09T17:50:36.204Z,1.10
2022-08-09T17:53:04.790Z,1.00
2022-08-09T17:55:48.535Z,1.10
2022-08-09T17:58:18.796Z,1.40
2022-08-09T18:00:48.034Z,1.05
2022-08-09T18:03:17.575Z,0.98
2022-08-09T18:05:44.840Z,1.00
2022-08-09T18:08:13.331Z,1.02
2022-08-09T18:10:46.005Z,1.20
2022-08-09T18:13:43.432Z,1.00
2022-08-09T18:16:09.388Z,1.30
2022-08-09T18:18:36.362Z,1.38
2022-08-09T18:21:22.915Z,0.95
2022-08-09T18:24:12.415Z,1.10
2022-08-09T18:26:37.984Z,1.00
2022-08-09T18:30:42.197Z,1.40
2022-08-09T18:31:55.639Z,1.38
2022-08-09T18:34:24.330Z,1.42
2022-08-09T18:36:53.437Z,1.00
2022-08-09T18:39:22.334Z,1.48
2022-08-09T18:41:53.141Z,1.38
2022-08-09T18:44:25.771Z,1.40
2022-08-09T18:47:04.977Z,1.38
2022-08-09T18:49:41.667Z,1.48
2022-08-09T18:52:11.801Z,1.35
2022-08-09T18:54:39.296Z,1.38
2022-08-09T18:57:16.903Z,1.42
2022-08-09T18:59:48.680Z,0.82
2022-08-09T19:02:16.421Z,1.13
2022-08-09T19:04:47.286Z,1.23
2022-08-09T19:07:16.248Z,1.10
2022-08-09T19:10:13.912Z,1.00
2022-08-09T19:12:31.850Z,1.27
2022-08-09T19:15:00.684Z,1.17
2022-08-09T19:17:31.048Z,1.00
2022-08-09T19:19:58.743Z,1.52
2022-08-09T19:22:27.730Z,1.10
2022-08-09T19:25:09.560Z,1.25
2022-08-09T19:27:39.427Z,1.23
2022-08-09T19:30:23.754Z,0.95
2022-08-09T19:32:55.288Z,0.90
2022-08-09T19:35:26.255Z,1.20
2022-08-09T19:37:56.132Z,1.23
2022-08-09T19:40:34.601Z,0.90
2022-08-09T19:43:03.855Z,1.05
2022-08-09T19:45:40.131Z,1.20
2022-08-09T19:48:10.817Z,1.20
2022-08-09T19:50:48.831Z,1.00
2022-08-09T19:53:20.766Z,1.00
2022-08-09T19:56:02.792Z,1.00
2022-08-09T19:58:33.409Z,0.90
2022-08-09T20:01:00.230Z,0.90
2022-08-09T20:04:25.142Z,1.20
2022-08-09T20:06:23.505Z,1.25
2022-08-09T20:08:55.373Z,1.02
2022-08-09T20:11:26.150Z,1.00
2022-08-09T20:13:54.736Z,0.98
2022-08-09T20:16:34.004Z,0.90
2022-08-09T20:19:48.559Z,0.90
2022-08-09T20:21:55.217Z,0.90
2022-08-09T20:24:31.703Z,1.00
2022-08-09T20:27:02.059Z,1.00
2022-08-09T20:29:32.672Z,1.00
2022-08-09T20:32:33.126Z,1.00
2022-08-09T20:34:55.299Z,1.20
2022-08-09T20:37:22.715Z,1.00
2022-08-09T20:40:18.090Z,1.00
2022-08-09T20:42:37.986Z,1.10
2022-08-09T20:45:57.081Z,1.00
2022-08-09T20:47:54.076Z,1.10
2022-08-09T20:50:48.475Z,1.20
2022-08-09T20:53:21.057Z,0.90
2022-08-09T20:56:01.083Z,1.00
2022-08-09T20:58:32.884Z,1.00
2022-08-09T21:01:32.251Z,1.02
2022-08-09T21:05:49.192Z,0.95
2022-08-09T21:06:36.342Z,1.35
2022-08-09T21:09:03.920Z,0.90
2022-08-09T21:14:17.640Z,1.10
2022-08-09T21:16:45.625Z,1.40
2022-08-09T21:20:17.721Z,0.90
2022-08-09T21:22:00.100Z,1.00
2022-08-09T21:24:32.442Z,1.10
2022-08-09T21:27:01.037Z,0.88
2022-08-09T21:29:49.157Z,0.90
2022-08-09T21:32:18.687Z,1.00
2022-08-09T21:34:49.156Z,0.85
2022-08-09T21:37:18.329Z,1.00
2022-08-09T21:39:45.504Z,0.90
2022-08-09T21:42:17.626Z,0.90
2022-08-09T21:44:55.346Z,0.80
2022-08-09T21:47:22.430Z,1.00
2022-08-09T21:49:49.639Z,1.00
2022-08-09T21:52:21.004Z,1.00
2022-08-09T21:54:57.139Z,1.00
2022-08-09T21:57:38.894Z,0.80
2022-08-09T22:00:43.284Z,1.00
2022-08-09T22:03:25.371Z,1.00
2022-08-09T22:05:54.114Z,0.90
2022-08-09T22:08:23.090Z,0.80
2022-08-09T22:11:00.349Z,0.85
2022-08-09T22:13:38.765Z,0.93
2022-08-09T22:16:09.541Z,0.90
2022-08-09T22:18:43.989Z,1.08
2022-08-09T22:21:24.272Z,0.90
2022-08-09T22:24:01.700Z,0.85
2022-08-09T22:26:35.512Z,1.00
2022-08-09T22:29:07.178Z,1.10
2022-08-09T22:31:44.143Z,1.00
2022-08-09T22:34:14.701Z,1.00
2022-08-09T22:36:46.385Z,0.90
2022-08-09T22:39:20.511Z,0.90
2022-08-09T22:42:03.443Z,0.90
2022-08-09T22:44:32.852Z,0.90
2022-08-09T22:48:16.426Z,0.80
2022-08-09T22:49:47.937Z,0.95
2022-08-09T22:52:19.665Z,0.90
2022-08-09T22:54:48.108Z,1.13
2022-08-09T22:57:15.287Z,0.80
2022-08-09T22:59:58.442Z,0.80
2022-08-09T23:02:27.465Z,0.90
2022-08-09T23:04:54.831Z,0.93
2022-08-09T23:08:22.826Z,0.90
2022-08-09T23:10:32.330Z,1.20
2022-08-09T23:12:59.614Z,0.90
2022-08-09T23:15:27.483Z,0.75
2022-08-09T23:17:55.172Z,0.90
2022-08-09T23:20:22.812Z,1.00
2022-08-09T23:22:49.571Z,0.90
2022-08-09T23:25:16.347Z,0.80
2022-08-09T23:28:14.070Z,1.00
2022-08-09T23:30:29.880Z,0.82
2022-08-09T23:32:57.314Z,0.90
2022-08-09T23:35:24.103Z,0.90
2022-08-09T23:37:50.837Z,0.93
2022-08-09T23:40:17.826Z,0.80
2022-08-09T23:42:44.604Z,0.80
2022-08-09T23:45:37.491Z,1.00
2022-08-09T23:47:58.495Z,0.85
2022-08-09T23:50:25.413Z,0.75
2022-08-09T23:52:52.227Z,0.88
2022-08-09T23:55:19.187Z,0.73
2022-08-09T23:58:07.175Z,1.00
